Time;durP1;ratioP1;P1;durP2;ratioP2;P2;SDS_P1;SDS_P2;PMS_P1;PMS_P2;Temp;Humidity;BMP_temperature;BMP_pressure;BME280_temperature;BME280_humidity;BME280_pressure;Samples;Min_cycle;Max_cycle;Signal;HPM_P1;HPM_P2
2023/04/30 00:00:13;;;;;;;11.73;0.80;;;;;;;10.27;69.02;101488.50;5072438;28;20032;-66
2023/04/30 00:02:52;;;;;;;0.73;0.52;;;;;;;10.18;69.60;101483.19;5077563;28;20096;-66
2023/04/30 00:05:49;;;;;;;0.68;0.50;;;;;;;10.13;69.30;101488.78;5080802;28;20043;-66
2023/04/30 00:08:23;;;;;;;0.60;0.50;;;;;;;10.17;69.47;101487.03;5087509;28;20108;-66
2023/04/30 00:11:18;;;;;;;2.20;0.63;;;;;;;10.12;69.66;101484.53;5072740;28;20028;-65
2023/04/30 00:14:12;;;;;;;0.30;0.30;;;;;;;10.15;69.36;101500.03;5066657;28;20025;-67
2023/04/30 00:17:03;;;;;;;1.67;1.35;;;;;;;10.12;69.54;101495.31;5071929;28;20555;-68
2023/04/30 00:19:36;;;;;;;0.63;0.63;;;;;;;9.91;70.95;101495.28;5070826;28;20481;-69
2023/04/30 00:22:13;;;;;;;0.43;0.43;;;;;;;9.90;71.21;101491.03;5063999;28;20052;-67
2023/04/30 00:25:02;;;;;;;0.77;0.75;;;;;;;9.98;70.31;101505.53;5054645;28;20032;-68
2023/04/30 00:27:43;;;;;;;0.40;0.38;;;;;;;9.99;70.59;101502.50;5064629;28;20040;-66
2023/04/30 00:30:26;;;;;;;1.48;0.50;;;;;;;9.98;70.39;101502.84;5070447;28;20052;-65
2023/04/30 00:33:25;;;;;;;0.50;0.47;;;;;;;9.91;70.45;101505.28;5065065;28;20032;-67
2023/04/30 00:36:25;;;;;;;0.35;0.35;;;;;;;9.89;70.11;101512.88;5066204;28;20043;-65
2023/04/30 00:39:41;;;;;;;0.50;0.35;;;;;;;9.90;69.94;101515.25;5068933;28;20120;-67
2023/04/30 00:42:31;;;;;;;1.15;0.45;;;;;;;9.83;70.61;101516.88;5050611;28;20045;-66
2023/04/30 00:45:25;;;;;;;0.63;0.63;;;;;;;9.79;70.33;101519.41;5062945;28;20691;-66
2023/04/30 00:48:32;;;;;;;0.73;0.73;;;;;;;9.69;71.14;101524.41;5061259;28;20040;-66
2023/04/30 00:51:16;;;;;;;0.50;0.50;;;;;;;9.62;71.48;101516.84;5051972;28;20896;-66
2023/04/30 00:54:01;;;;;;;0.47;0.40;;;;;;;9.66;71.35;101525.06;5035310;28;20079;-67
2023/04/30 00:56:35;;;;;;;0.55;0.55;;;;;;;9.51;72.24;101523.72;5060662;28;20056;-66
2023/04/30 00:59:21;;;;;;;1.10;1.00;;;;;;;9.56;72.02;101525.47;5062468;28;20121;-65
2023/04/30 01:01:55;;;;;;;0.82;0.70;;;;;;;9.54;71.79;101533.06;5064388;28;20282;-66
2023/04/30 01:04:32;;;;;;;0.52;0.52;;;;;;;9.54;71.55;101533.06;5044657;28;20068;-67
2023/04/30 01:07:06;;;;;;;0.63;0.63;;;;;;;9.51;71.77;101541.75;5059204;28;20025;-65
2023/04/30 01:10:08;;;;;;;2.20;0.55;;;;;;;9.40;72.24;101533.28;5062891;28;20044;-66
2023/04/30 01:13:03;;;;;;;10.80;0.60;;;;;;;9.42;72.14;101541.03;5066155;28;20469;-65
2023/04/30 01:16:36;;;;;;;0.40;0.40;;;;;;;9.42;71.41;101539.13;5068040;28;20044;-65
2023/04/30 01:20:10;;;;;;;0.45;0.45;;;;;;;9.33;72.47;101543.75;5069618;28;20437;-65
2023/04/30 01:23:37;;;;;;;0.57;0.30;;;;;;;9.27;72.40;101541.59;5054908;28;20397;-66
2023/04/30 01:27:01;;;;;;;0.52;0.52;;;;;;;9.15;72.67;101542.28;5061153;28;20036;-64
2023/04/30 01:29:37;;;;;;;0.57;0.57;;;;;;;9.11;73.24;101535.97;5070730;28;20392;-64
2023/04/30 01:32:20;;;;;;;1.95;0.93;;;;;;;9.16;73.02;101543.84;5068848;28;20048;-65
2023/04/30 01:35:21;;;;;;;0.40;0.40;;;;;;;9.14;73.31;101540.69;5066200;28;20036;-68
2023/04/30 01:38:30;;;;;;;1.40;0.50;;;;;;;9.13;73.46;101544.50;5069193;28;20041;-64
2023/04/30 01:41:32;;;;;;;0.47;0.47;;;;;;;9.15;73.08;101546.84;4998217;28;20042;-66
2023/04/30 01:44:51;;;;;;;5.03;0.90;;;;;;;8.98;72.96;101550.41;5007188;28;20132;-66
2023/04/30 01:48:00;;;;;;;0.73;0.45;;;;;;;8.93;73.27;101551.34;4935924;28;20350;-65
2023/04/30 01:51:16;;;;;;;0.68;0.52;;;;;;;8.89;73.54;101550.41;4946684;29;20196;-64
2023/04/30 01:54:48;;;;;;;1.48;0.70;;;;;;;8.92;73.11;101554.38;4927796;29;20461;-65
2023/04/30 01:57:46;;;;;;;1.98;1.10;;;;;;;8.87;73.48;101560.69;4946931;28;20054;-64
2023/04/30 02:00:33;;;;;;;0.63;0.45;;;;;;;8.85;73.12;101562.13;4943647;29;20429;-65
2023/04/30 02:03:22;;;;;;;1.38;0.52;;;;;;;8.88;72.88;101569.56;4936301;29;20571;-65
2023/04/30 02:06:17;;;;;;;0.63;0.63;;;;;;;8.84;73.13;101574.78;4936141;29;20075;-66
2023/04/30 02:09:01;;;;;;;0.57;0.57;;;;;;;8.82;73.52;101570.81;4938273;29;20066;-64
2023/04/30 02:11:32;;;;;;;0.80;0.50;;;;;;;8.78;73.68;101570.69;4948062;29;20077;-64
2023/04/30 02:14:33;;;;;;;0.60;0.60;;;;;;;8.70;74.23;101570.69;4949583;29;20043;-66
2023/04/30 02:17:23;;;;;;;6.85;0.60;;;;;;;8.59;74.16;101569.44;4984459;28;20112;-67
2023/04/30 02:20:34;;;;;;;1.88;0.57;;;;;;;8.47;74.74;101578.16;4992724;28;20457;-64
2023/04/30 02:23:30;;;;;;;1.67;0.60;;;;;;;8.46;75.28;101579.25;4966172;28;20046;-67
2023/04/30 02:26:18;;;;;;;3.33;0.82;;;;;;;8.45;75.78;101574.19;5063130;28;20039;-65
2023/04/30 02:28:52;;;;;;;0.50;0.50;;;;;;;8.49;74.88;101577.81;5073946;28;20052;-65
2023/04/30 02:31:49;;;;;;;1.35;0.85;;;;;;;8.56;75.23;101578.91;5062424;28;20060;-65
2023/04/30 02:35:16;;;;;;;0.45;0.45;;;;;;;8.63;74.78;101587.28;5070895;28;20045;-65
2023/04/30 02:38:13;;;;;;;0.68;0.68;;;;;;;8.54;74.80;101581.13;5072999;28;20039;-65
2023/04/30 02:40:46;;;;;;;0.40;0.40;;;;;;;8.34;75.08;101583.69;5065566;28;20147;-69
2023/04/30 02:43:33;;;;;;;1.23;0.35;;;;;;;8.35;75.01;101587.94;5071272;28;20571;-65
2023/04/30 02:46:09;;;;;;;0.40;0.40;;;;;;;8.39;74.92;101594.25;5067632;28;20191;-64
2023/04/30 02:48:42;;;;;;;2.63;0.47;;;;;;;8.40;75.16;101587.78;5071274;28;20411;-66
2023/04/30 02:51:17;;;;;;;2.42;1.05;;;;;;;8.41;75.27;101582.09;5074371;28;20083;-64
2023/04/30 02:53:54;;;;;;;1.13;0.52;;;;;;;8.40;75.04;101588.56;5072532;28;20047;-67
2023/04/30 02:56:27;;;;;;;0.40;0.40;;;;;;;8.31;75.40;101584.28;5067273;28;20028;-65
2023/04/30 02:59:33;;;;;;;0.65;0.60;;;;;;;8.29;75.30;101592.66;5080591;28;20028;-65
2023/04/30 03:02:14;;;;;;;0.43;0.43;;;;;;;8.07;76.33;101598.94;5074202;28;20373;-66
2023/04/30 03:05:28;;;;;;;0.80;0.43;;;;;;;8.08;75.94;101595.16;5068965;28;20078;-64
2023/04/30 03:08:09;;;;;;;0.90;0.77;;;;;;;8.14;76.00;101595.78;5058328;28;20160;-65
2023/04/30 03:10:42;;;;;;;1.40;0.50;;;;;;;8.20;74.98;101591.84;5071980;28;20032;-65
2023/04/30 03:13:15;;;;;;;0.65;0.65;;;;;;;8.13;74.88;101588.84;5070143;28;20031;-70
2023/04/30 03:16:05;;;;;;;1.02;0.65;;;;;;;8.02;75.51;101590.25;5080063;28;20106;-65
2023/04/30 03:22:06;;;;;;;0.60;0.60;;;;;;;7.92;75.92;101598.59;5071788;28;20060;-65
2023/04/30 03:24:43;;;;;;;0.45;0.45;;;;;;;7.91;75.91;101602.41;5061362;28;20119;-65
2023/04/30 03:30:40;;;;;;;1.17;0.88;;;;;;;7.90;76.49;101600.81;5073451;28;20098;-65
2023/04/30 03:33:51;;;;;;;0.40;0.40;;;;;;;7.89;76.24;101610.75;5069026;28;20370;-65
2023/04/30 03:36:19;;;;;;;1.17;0.70;;;;;;;7.82;76.55;101606.97;5072530;28;20408;-65
2023/04/30 03:39:34;;;;;;;0.20;0.20;;;;;;;7.87;76.72;101609.47;5072629;28;20029;-65
2023/04/30 03:42:09;;;;;;;1.27;0.40;;;;;;;7.87;76.12;101599.56;5060287;28;20036;-66
2023/04/30 03:45:05;;;;;;;0.63;0.40;;;;;;;7.88;76.30;101601.13;5070982;28;20409;-67
2023/04/30 03:48:03;;;;;;;0.40;0.35;;;;;;;7.77;76.68;101609.78;5067752;28;20099;-66
2023/04/30 03:50:35;;;;;;;0.40;0.40;;;;;;;7.69;76.78;101607.84;5069943;28;20033;-66
2023/04/30 03:53:27;;;;;;;3.28;1.75;;;;;;;7.59;77.17;101619.66;5062608;28;20105;-66
2023/04/30 03:56:15;;;;;;;0.55;0.50;;;;;;;7.59;78.12;101610.84;5069805;28;20147;-65
2023/04/30 03:59:23;;;;;;;1.90;1.27;;;;;;;7.59;77.71;101616.97;5067159;28;20070;-64
2023/04/30 04:02:34;;;;;;;1.02;0.75;;;;;;;7.54;77.86;101619.81;5066983;28;20048;-65
2023/04/30 04:05:35;;;;;;;0.68;0.52;;;;;;;7.54;78.70;101633.19;5068381;28;20078;-68
2023/04/30 04:08:10;;;;;;;1.17;0.80;;;;;;;7.56;78.64;101619.50;5070535;28;20098;-65
2023/04/30 04:11:13;;;;;;;1.27;0.57;;;;;;;7.54;78.38;101625.16;5066443;28;20029;-67
2023/04/30 04:13:53;;;;;;;0.57;0.52;;;;;;;7.55;78.30;101618.69;5066394;28;20127;-64
2023/04/30 04:16:21;;;;;;;1.00;1.00;;;;;;;7.59;78.82;101619.66;5078522;28;20040;-66
2023/04/30 04:19:21;;;;;;;0.50;0.50;;;;;;;7.63;78.35;101631.34;5072830;28;20067;-66
2023/04/30 04:22:13;;;;;;;1.02;0.80;;;;;;;7.57;78.00;101631.81;5060452;28;20036;-65
2023/04/30 04:24:48;;;;;;;0.73;0.70;;;;;;;7.62;78.70;101629.78;5086169;28;20037;-65
2023/04/30 04:27:27;;;;;;;2.33;1.25;;;;;;;7.68;78.74;101627.72;5049032;28;20070;-67
2023/04/30 04:30:08;;;;;;;0.47;0.47;;;;;;;7.63;78.23;101635.91;5064363;28;20386;-65
2023/04/30 04:33:16;;;;;;;1.17;0.65;;;;;;;7.48;79.35;101633.63;5071407;28;20041;-68
2023/04/30 04:35:58;;;;;;;4.10;1.50;;;;;;;7.52;79.49;101642.63;5067709;28;20071;-66
2023/04/30 04:38:35;;;;;;;1.35;0.73;;;;;;;7.57;79.50;101642.53;5012818;28;20378;-64
2023/04/30 04:41:17;;;;;;;2.97;0.75;;;;;;;7.59;80.00;101646.44;5071007;28;20046;-65
2023/04/30 04:44:05;;;;;;;0.70;0.70;;;;;;;7.60;79.86;101649.94;5065932;28;20061;-65
2023/04/30 04:46:52;;;;;;;12.35;1.65;;;;;;;7.63;79.80;101641.25;5084265;28;20033;-65
2023/04/30 04:49:28;;;;;;;1.23;0.93;;;;;;;7.71;79.78;101653.91;5068154;28;20499;-66
2023/04/30 04:52:04;;;;;;;1.05;0.80;;;;;;;7.76;80.23;101645.75;5071226;28;20535;-65
2023/04/30 04:54:32;;;;;;;0.77;0.77;;;;;;;7.81;80.29;101656.31;5069648;28;20119;-66
2023/04/30 04:57:33;;;;;;;0.50;0.50;;;;;;;7.79;80.07;101655.81;5068508;28;20148;-66
2023/04/30 05:00:07;;;;;;;0.88;0.80;;;;;;;7.91;79.90;101656.81;5071460;28;20067;-65
2023/04/30 05:02:38;;;;;;;2.38;1.10;;;;;;;7.96;80.38;101671.97;5061528;28;20063;-67
2023/04/30 05:05:27;;;;;;;1.92;0.80;;;;;;;8.04;79.97;101668.50;5070399;28;20123;-65
2023/04/30 05:08:13;;;;;;;0.60;0.50;;;;;;;8.04;79.83;101679.25;5053686;28;20037;-65
2023/04/30 05:10:53;;;;;;;1.00;0.45;;;;;;;8.10;80.26;101689.53;5063620;28;20695;-65
2023/04/30 05:13:32;;;;;;;1.77;0.85;;;;;;;8.16;79.98;101682.13;5055357;28;20055;-65
2023/04/30 05:16:19;;;;;;;2.15;0.82;;;;;;;8.30;79.97;101676.66;5067336;28;20048;-66
2023/04/30 05:19:08;;;;;;;4.47;1.25;;;;;;;8.36;79.75;101681.56;5066709;28;20408;-65
2023/04/30 05:22:04;;;;;;;0.93;0.63;;;;;;;8.51;79.84;101682.97;5063738;28;20047;-66
2023/04/30 05:24:59;;;;;;;0.57;0.52;;;;;;;8.55;79.42;101681.25;5060651;28;20043;-66
2023/04/30 05:27:35;;;;;;;1.35;0.75;;;;;;;8.78;79.36;101682.66;5070099;28;20040;-65
2023/04/30 05:30:23;;;;;;;1.05;0.90;;;;;;;9.03;78.64;101698.78;5063103;28;20416;-65
2023/04/30 05:33:13;;;;;;;1.42;0.98;;;;;;;9.19;77.36;101692.91;5062608;28;20044;-70
2023/04/30 05:35:54;;;;;;;0.43;0.43;;;;;;;9.63;76.64;101698.63;5068992;28;20036;-66
2023/04/30 05:38:51;;;;;;;2.17;1.05;;;;;;;10.01;74.99;101685.13;5067164;28;20040;-65
2023/04/30 05:41:33;;;;;;;1.23;0.77;;;;;;;10.20;72.32;101701.69;5056389;28;20055;-65
2023/04/30 05:44:29;;;;;;;1.08;0.77;;;;;;;10.32;71.24;101703.66;5068197;28;20492;-66
2023/04/30 05:47:08;;;;;;;0.65;0.65;;;;;;;10.70;71.28;101710.50;5061770;28;20485;-65
2023/04/30 05:49:37;;;;;;;0.70;0.50;;;;;;;10.85;69.85;101706.44;5063536;28;20032;-65
2023/04/30 05:52:16;;;;;;;1.85;0.77;;;;;;;11.03;69.46;101712.47;5062375;28;20090;-65
2023/04/30 05:55:06;;;;;;;0.50;0.50;;;;;;;11.33;67.79;101716.59;5068399;28;20032;-66
2023/04/30 05:57:42;;;;;;;0.45;0.45;;;;;;;11.62;66.13;101719.16;5061829;28;20041;-65
2023/04/30 06:00:18;;;;;;;0.40;0.40;;;;;;;11.81;65.45;101729.44;5060847;28;20041;-66
2023/04/30 06:03:21;;;;;;;2.80;0.50;;;;;;;11.84;65.12;101724.16;5061211;28;20033;-66
2023/04/30 06:05:51;;;;;;;1.17;0.77;;;;;;;11.99;63.28;101726.19;5066254;28;20037;-66
2023/04/30 06:08:43;;;;;;;0.57;0.50;;;;;;;11.82;62.27;101728.31;5051118;28;20513;-67
2023/04/30 06:11:49;;;;;;;2.55;0.50;;;;;;;12.12;61.50;101733.16;5060670;28;20056;-68
2023/04/30 06:16:55;;;;;;;0.50;0.45;;;;;;;12.42;60.60;101729.09;4942263;28;20086;-67
2023/04/30 06:19:20;;;;;;;0.70;0.50;;;;;;;12.57;59.93;101722.97;4978693;28;20030;-67
2023/04/30 06:21:46;;;;;;;0.40;0.40;;;;;;;12.73;58.65;101728.47;4968073;28;20423;-67
2023/04/30 06:24:11;;;;;;;0.35;0.35;;;;;;;12.87;58.01;101730.78;4979371;28;20561;-66
2023/04/30 06:26:37;;;;;;;0.75;0.40;;;;;;;12.89;57.51;101725.81;4966724;28;20034;-65
2023/04/30 06:29:03;;;;;;;1.45;1.27;;;;;;;13.14;56.95;101733.50;4989726;28;20149;-66
2023/04/30 06:31:29;;;;;;;0.15;0.15;;;;;;;13.25;55.68;101733.78;4976849;28;20034;-67
2023/04/30 06:33:55;;;;;;;0.73;0.73;;;;;;;13.38;55.25;101746.91;4983369;28;20034;-65
2023/04/30 06:36:20;;;;;;;0.68;0.60;;;;;;;13.61;54.69;101743.66;4967074;28;20045;-66
2023/04/30 06:38:46;;;;;;;1.17;0.57;;;;;;;13.71;54.46;101751.22;4971896;28;20053;-66
2023/04/30 06:41:12;;;;;;;0.40;0.38;;;;;;;13.70;53.49;101749.66;4983505;28;20080;-67
2023/04/30 06:43:37;;;;;;;0.45;0.45;;;;;;;13.85;52.45;101755.09;4980771;28;20042;-66
2023/04/30 06:46:03;;;;;;;0.95;0.43;;;;;;;14.03;52.01;101752.81;4984563;28;20045;-68
2023/04/30 06:48:29;;;;;;;0.68;0.47;;;;;;;14.11;51.10;101752.63;4971794;28;20041;-67
2023/04/30 06:50:56;;;;;;;0.30;0.30;;;;;;;14.23;50.16;101760.66;4990180;28;20042;-68
2023/04/30 06:53:22;;;;;;;0.20;0.20;;;;;;;14.31;50.86;101750.78;4982881;28;20030;-67
2023/04/30 06:55:48;;;;;;;0.45;0.32;;;;;;;14.31;49.96;101754.28;4966677;28;20432;-66
2023/04/30 06:58:14;;;;;;;0.15;0.15;;;;;;;14.58;50.00;101754.50;4976802;28;20030;-69
2023/04/30 07:00:39;;;;;;;0.20;0.20;;;;;;;14.45;49.58;101754.63;4986961;28;20034;-67
2023/04/30 07:03:05;;;;;;;0.22;0.22;;;;;;;14.69;49.59;101763.66;4974171;28;20727;-67
2023/04/30 07:05:31;;;;;;;0.47;0.30;;;;;;;14.73;49.00;101761.81;4983987;28;20038;-66
2023/04/30 07:07:57;;;;;;;0.75;0.30;;;;;;;14.88;47.88;101760.97;4986420;28;20034;-66
2023/04/30 07:10:23;;;;;;;0.30;0.30;;;;;;;15.08;48.57;101762.53;4973157;28;20521;-67
2023/04/30 07:12:48;;;;;;;0.40;0.30;;;;;;;15.22;48.38;101766.31;4982392;28;20125;-68
2023/04/30 07:15:14;;;;;;;0.30;0.20;;;;;;;15.23;47.11;101767.09;4976596;28;20040;-67
2023/04/30 07:17:40;;;;;;;0.30;0.30;;;;;;;15.43;46.53;101770.63;4974447;28;20173;-69
2023/04/30 07:20:08;;;;;;;0.20;0.20;;;;;;;15.62;46.79;101765.16;4976095;28;20077;-67
2023/04/30 07:22:33;;;;;;;0.73;0.40;;;;;;;15.73;45.93;101766.91;4990099;28;20046;-67
2023/04/30 07:24:59;;;;;;;0.28;0.28;;;;;;;15.79;45.96;101772.81;4984750;28;20045;-69
2023/04/30 07:27:26;;;;;;;0.57;0.52;;;;;;;15.95;45.94;101765.34;4972496;28;20418;-67
2023/04/30 07:29:51;;;;;;;1.27;0.43;;;;;;;16.12;45.90;101768.31;4988267;28;20387;-65
2023/04/30 07:32:17;;;;;;;0.45;0.35;;;;;;;16.17;45.26;101778.09;4985970;28;20035;-69
2023/04/30 07:34:42;;;;;;;0.30;0.30;;;;;;;16.05;45.06;101770.91;4987170;28;20403;-69
2023/04/30 07:37:08;;;;;;;0.47;0.20;;;;;;;16.24;45.02;101770.03;4982785;28;20034;-67
2023/04/30 07:39:35;;;;;;;1.52;0.20;;;;;;;16.29;44.17;101777.91;4992592;28;20042;-67
2023/04/30 07:42:01;;;;;;;0.15;0.10;;;;;;;16.25;43.42;101771.63;4981159;28;20031;-66
2023/04/30 07:44:27;;;;;;;0.60;0.32;;;;;;;16.19;43.63;101775.81;4962717;28;20081;-66
2023/04/30 07:46:52;;;;;;;0.68;0.20;;;;;;;16.32;44.18;101777.16;4969652;28;20037;-66
2023/04/30 07:49:19;;;;;;;0.30;0.20;;;;;;;16.50;44.55;101783.69;4983077;28;20048;-71
2023/04/30 07:51:45;;;;;;;0.43;0.30;;;;;;;16.83;43.99;101788.41;4968940;28;20038;-67
2023/04/30 07:54:11;;;;;;;0.30;0.20;;;;;;;16.86;43.65;101788.44;4996626;28;20062;-67
2023/04/30 07:56:36;;;;;;;0.55;0.30;;;;;;;16.83;42.21;101791.13;4988778;28;20050;-66
2023/04/30 07:59:02;;;;;;;3.95;0.43;;;;;;;16.71;42.95;101785.91;4981175;28;20039;-66
2023/04/30 08:01:27;;;;;;;0.28;0.28;;;;;;;16.58;43.13;101801.69;4961251;28;20045;-69
2023/04/30 08:03:53;;;;;;;0.30;0.28;;;;;;;16.44;40.94;101789.75;4976694;28;20045;-66
2023/04/30 08:06:18;;;;;;;1.50;0.75;;;;;;;15.91;41.71;101784.28;4973330;28;20084;-69
2023/04/30 08:08:44;;;;;;;0.22;0.20;;;;;;;16.22;43.35;101783.22;4980138;28;20038;-66
2023/04/30 08:11:10;;;;;;;0.40;0.10;;;;;;;16.42;43.18;101783.91;4986753;28;20065;-68
2023/04/30 08:13:36;;;;;;;0.77;0.45;;;;;;;16.68;42.88;101784.72;4987337;28;20552;-67
2023/04/30 08:16:01;;;;;;;0.20;0.10;;;;;;;16.78;42.37;101794.19;4989926;28;20050;-68
2023/04/30 08:18:27;;;;;;;0.63;0.32;;;;;;;16.82;42.82;101793.06;4992238;28;20495;-67
2023/04/30 08:20:52;;;;;;;0.25;0.20;;;;;;;17.21;42.39;101800.97;4988677;28;20041;-70
2023/04/30 08:23:17;;;;;;;0.38;0.30;;;;;;;17.08;41.38;101794.97;4983097;28;20038;-67
2023/04/30 08:25:43;;;;;;;0.20;0.20;;;;;;;17.05;41.77;101790.25;4981704;28;20487;-67
2023/04/30 08:28:08;;;;;;;1.75;0.75;;;;;;;17.21;42.29;101790.81;4992502;28;20046;-66
2023/04/30 08:30:34;;;;;;;1.38;0.40;;;;;;;17.31;41.30;101801.06;4972972;28;20034;-66
2023/04/30 08:32:59;;;;;;;0.43;0.30;;;;;;;17.43;41.12;101797.31;4989988;28;20403;-66
2023/04/30 08:35:25;;;;;;;0.45;0.38;;;;;;;17.79;41.00;101799.25;4991629;28;20042;-66
2023/04/30 08:37:50;;;;;;;0.52;0.28;;;;;;;17.79;40.20;101800.03;4985837;28;20070;-66
2023/04/30 08:40:16;;;;;;;1.15;0.32;;;;;;;17.86;39.56;101800.13;4974991;28;20061;-67
2023/04/30 08:42:48;;;;;;;0.52;0.40;;;;;;;18.01;39.45;101807.25;4975410;28;20038;-67
2023/04/30 08:45:14;;;;;;;0.22;0.17;;;;;;;18.08;39.92;101808.50;4987308;28;20066;-66
2023/04/30 08:47:43;;;;;;;0.10;0.10;;;;;;;18.03;38.29;101807.69;4991283;28;20034;-68
2023/04/30 08:50:09;;;;;;;0.70;0.30;;;;;;;17.92;40.35;101795.09;4976181;28;20027;-67
2023/04/30 08:52:36;;;;;;;0.20;0.20;;;;;;;18.29;40.87;101795.00;4991428;28;20045;-68
2023/04/30 08:55:09;;;;;;;0.30;0.20;;;;;;;18.32;40.40;101797.75;4984469;28;20042;-67
2023/04/30 08:57:37;;;;;;;0.20;0.20;;;;;;;18.38;40.38;101790.78;4990966;28;20048;-67
2023/04/30 09:00:05;;;;;;;0.20;0.17;;;;;;;18.51;39.99;101794.81;4991015;28;20034;-69
2023/04/30 09:02:31;;;;;;;0.28;0.15;;;;;;;18.59;39.71;101795.63;4973039;28;20364;-67
2023/04/30 09:04:57;;;;;;;0.30;0.30;;;;;;;18.81;38.72;101797.31;4984020;28;20640;-66
2023/04/30 09:07:24;;;;;;;0.65;0.35;;;;;;;18.69;39.05;101792.19;4984674;28;20040;-66
2023/04/30 09:09:52;;;;;;;0.50;0.30;;;;;;;18.79;39.66;101794.94;4991085;28;20034;-67
2023/04/30 09:12:18;;;;;;;2.30;0.40;;;;;;;19.02;39.32;101791.97;4988072;28;20034;-67
2023/04/30 09:15:07;;;;;;;0.57;0.28;;;;;;;19.28;38.17;101801.81;4987597;28;21605;-70
2023/04/30 09:17:33;;;;;;;0.47;0.25;;;;;;;19.32;38.31;101808.06;4984215;28;20042;-66
2023/04/30 09:20:10;;;;;;;0.38;0.30;;;;;;;19.31;37.94;101796.38;4986081;28;20045;-67
2023/04/30 09:22:37;;;;;;;1.98;0.15;;;;;;;19.49;38.55;101791.75;4989317;28;20042;-67
2023/04/30 09:25:03;;;;;;;0.30;0.20;;;;;;;19.59;36.77;101790.19;4981379;28;20034;-66
2023/04/30 09:27:28;;;;;;;0.47;0.30;;;;;;;19.36;37.05;101793.28;4983355;28;20763;-66
2023/04/30 09:29:53;;;;;;;0.32;0.17;;;;;;;19.34;37.04;101784.69;4969591;28;20096;-68
2023/04/30 09:32:19;;;;;;;0.57;0.32;;;;;;;19.37;37.89;101800.31;4988905;28;20041;-67
2023/04/30 09:34:44;;;;;;;0.65;0.40;;;;;;;19.47;38.58;101788.59;4982740;28;20113;-67
2023/04/30 09:37:10;;;;;;;1.17;0.20;;;;;;;19.55;37.34;101790.19;4978002;28;20434;-67
2023/04/30 09:39:49;;;;;;;0.93;0.30;;;;;;;19.59;38.19;101790.97;4978895;28;20038;-66
2023/04/30 09:42:15;;;;;;;0.10;0.10;;;;;;;19.81;38.32;101791.78;4987774;28;20045;-66
2023/04/30 09:44:42;;;;;;;0.38;0.30;;;;;;;20.17;37.31;101789.88;4986099;28;20117;-69
2023/04/30 09:47:17;;;;;;;0.20;0.20;;;;;;;20.24;37.75;101782.47;4984872;28;20391;-67
2023/04/30 09:49:47;;;;;;;0.60;0.20;;;;;;;20.35;36.79;101780.47;4981835;28;20121;-67
2023/04/30 09:52:17;;;;;;;0.20;0.20;;;;;;;20.16;35.83;101775.41;4990076;28;20030;-68
2023/04/30 09:54:44;;;;;;;0.35;0.22;;;;;;;20.25;36.69;101767.59;4999526;28;20119;-66
2023/04/30 09:57:12;;;;;;;0.20;0.20;;;;;;;20.59;36.05;101773.41;4991843;28;20109;-67
2023/04/30 09:59:43;;;;;;;0.35;0.20;;;;;;;20.74;36.32;101777.66;4977650;28;20129;-67
2023/04/30 10:02:10;;;;;;;0.28;0.20;;;;;;;20.61;35.82;101769.06;4990812;28;20068;-68
2023/04/30 10:04:38;;;;;;;1.55;0.30;;;;;;;20.77;35.65;101768.63;4990741;28;20073;-66
2023/04/30 10:07:14;;;;;;;0.52;0.30;;;;;;;20.64;34.94;101764.78;4980638;28;20066;-66
2023/04/30 10:10:13;;;;;;;0.95;0.75;;;;;;;20.97;35.55;101761.53;4986298;28;20069;-67
2023/04/30 10:12:49;;;;;;;2.50;0.28;;;;;;;21.14;35.54;101762.63;4995355;28;20081;-66
2023/04/30 10:15:19;;;;;;;0.43;0.35;;;;;;;21.09;34.71;101763.06;4986757;28;20058;-66
2023/04/30 10:17:51;;;;;;;0.30;0.20;;;;;;;21.07;35.17;101758.00;4990741;28;20034;-66
2023/04/30 10:20:20;;;;;;;0.30;0.20;;;;;;;20.98;34.46;101759.56;4979991;28;20060;-66
2023/04/30 10:22:47;;;;;;;0.25;0.20;;;;;;;20.77;35.04;101746.72;4991345;28;20054;-68
2023/04/30 10:25:13;;;;;;;0.10;0.10;;;;;;;21.06;35.60;101747.44;4998423;28;20058;-70
2023/04/30 10:27:39;;;;;;;0.65;0.30;;;;;;;21.29;34.91;101756.69;4988851;28;20116;-66
2023/04/30 10:30:07;;;;;;;0.32;0.20;;;;;;;21.69;34.69;101754.47;4991070;28;20157;-66
2023/04/30 10:32:42;;;;;;;0.22;0.10;;;;;;;21.66;34.81;101760.78;4990884;28;20023;-66
2023/04/30 10:35:21;;;;;;;2.65;0.43;;;;;;;21.87;33.80;101763.38;4980045;28;20522;-66
2023/04/30 10:37:56;;;;;;;0.30;0.30;;;;;;;21.59;33.93;101747.88;4994899;28;20040;-68
2023/04/30 10:40:21;;;;;;;1.05;0.32;;;;;;;22.04;34.88;101754.22;4987730;28;20068;-66
2023/04/30 10:42:48;;;;;;;0.40;0.32;;;;;;;22.01;33.74;101739.31;4994224;28;20427;-67
2023/04/30 10:45:19;;;;;;;0.70;0.45;;;;;;;22.19;33.82;101747.41;4982961;28;20493;-67
2023/04/30 10:47:45;;;;;;;0.35;0.20;;;;;;;21.47;32.20;101748.34;4993369;28;20065;-69
2023/04/30 10:50:11;;;;;;;0.93;0.40;;;;;;;21.18;34.08;101741.47;4987015;28;20704;-66
2023/04/30 10:52:37;;;;;;;0.55;0.40;;;;;;;21.86;33.37;101737.91;4993309;28;20051;-68
2023/04/30 10:55:06;;;;;;;0.22;0.20;;;;;;;22.22;33.17;101732.88;4990440;28;20598;-67
2023/04/30 10:57:40;;;;;;;3.00;0.40;;;;;;;22.20;33.66;101735.25;4989735;28;20426;-67
2023/04/30 11:00:05;;;;;;;0.32;0.30;;;;;;;22.28;32.97;101732.00;4993738;28;20083;-66
2023/04/30 11:02:46;;;;;;;1.08;0.68;;;;;;;22.18;31.70;101726.63;4993736;28;20499;-65
2023/04/30 11:05:13;;;;;;;1.57;0.30;;;;;;;20.50;33.04;101723.75;4989151;28;20713;-65
2023/04/30 11:07:56;;;;;;;0.75;0.75;;;;;;;20.98;34.88;101730.19;4990901;28;20034;-66
2023/04/30 11:10:24;;;;;;;1.00;0.50;;;;;;;21.46;33.95;101720.16;4978323;28;20042;-66
2023/04/30 11:12:54;;;;;;;0.52;0.40;;;;;;;21.93;32.88;101726.84;4993892;28;20026;-66
2023/04/30 11:15:24;;;;;;;0.32;0.30;;;;;;;21.99;34.01;101724.47;4983814;28;20447;-69
2023/04/30 11:17:50;;;;;;;0.40;0.40;;;;;;;22.25;33.33;101715.56;4976900;28;20060;-65
2023/04/30 11:20:22;;;;;;;0.75;0.38;;;;;;;22.55;32.69;101714.88;4993529;28;20387;-66
2023/04/30 11:22:47;;;;;;;1.45;0.60;;;;;;;22.50;32.36;101716.09;4993916;28;20049;-71
2023/04/30 11:25:18;;;;;;;4.32;0.40;;;;;;;22.48;32.68;101707.47;4972501;28;20031;-69
2023/04/30 11:27:44;;;;;;;0.47;0.38;;;;;;;22.61;32.09;101708.53;4970840;28;20029;-66
2023/04/30 11:30:14;;;;;;;0.82;0.50;;;;;;;22.71;33.05;101712.31;4994145;28;20113;-66
2023/04/30 11:32:44;;;;;;;0.52;0.40;;;;;;;22.77;32.35;101710.69;4999438;28;20034;-68
2023/04/30 11:35:10;;;;;;;0.30;0.30;;;;;;;22.91;32.96;101702.25;4993193;28;20034;-67
2023/04/30 11:37:38;;;;;;;1.70;0.40;;;;;;;23.01;32.69;101709.59;4994556;28;20164;-66
2023/04/30 11:40:09;;;;;;;1.58;0.40;;;;;;;23.23;32.00;101713.56;4994282;28;20387;-67
2023/04/30 11:42:38;;;;;;;1.02;0.20;;;;;;;23.37;33.09;101713.41;5001637;28;20046;-66
2023/04/30 11:45:03;;;;;;;0.60;0.30;;;;;;;23.23;32.22;101708.88;4991316;28;20037;-67
2023/04/30 11:47:42;;;;;;;1.20;0.43;;;;;;;22.95;31.69;101703.78;4993338;28;20042;-68
2023/04/30 11:50:13;;;;;;;0.70;0.47;;;;;;;22.77;31.79;101699.69;4963939;28;20030;-68
2023/04/30 11:52:47;;;;;;;1.75;0.60;;;;;;;23.02;32.76;101705.63;4974022;28;20545;-66
2023/04/30 11:55:15;;;;;;;2.10;0.60;;;;;;;22.94;32.14;101702.22;4992107;28;20483;-66
2023/04/30 11:57:45;;;;;;;0.38;0.35;;;;;;;22.96;32.34;101691.56;4960318;28;20061;-66
2023/04/30 12:00:15;;;;;;;1.10;0.40;;;;;;;23.06;31.87;101689.88;4985929;28;20038;-66
2023/04/30 12:02:42;;;;;;;1.08;0.70;;;;;;;23.50;32.23;101695.13;4974896;28;20034;-67
2023/04/30 12:05:24;;;;;;;0.47;0.30;;;;;;;23.34;30.96;101700.50;4993132;28;20057;-66
2023/04/30 12:07:54;;;;;;;2.10;0.82;;;;;;;22.81;30.57;101695.72;4968239;28;20038;-67
2023/04/30 12:10:21;;;;;;;0.53;0.20;;;;;;;22.60;31.64;101682.25;4992819;28;20030;-66
2023/04/30 12:12:48;;;;;;;2.38;0.73;;;;;;;22.91;32.52;101691.28;4992520;28;20277;-68
2023/04/30 12:15:18;;;;;;;0.50;0.20;;;;;;;23.14;32.53;101681.13;4989910;28;20037;-69
2023/04/30 12:17:45;;;;;;;0.45;0.25;;;;;;;23.39;32.35;101682.72;4992486;28;20069;-69
2023/04/30 12:20:13;;;;;;;0.75;0.38;;;;;;;23.25;32.11;101673.47;4992716;28;20037;-68
2023/04/30 12:22:41;;;;;;;0.60;0.30;;;;;;;23.20;32.88;101671.22;4993120;28;20036;-67
2023/04/30 12:25:12;;;;;;;0.90;0.30;;;;;;;23.40;32.25;101668.59;4979670;28;20180;-69
2023/04/30 12:27:39;;;;;;;0.28;0.25;;;;;;;22.97;30.90;101668.41;4991518;28;20113;-66